Forside
METAR-TAF:

METAR-TAF

Lufthavne :

Alice Springs, Australien

Breddekreds: 23-48S, længdekreds: 133-53E, højde: 545 m

Aktuelle vejr

Denne rapport blev lavet for 22 minutter siden, kl. 09:00 UTC
Vind 6 kt fra vest
Temperatur 23°C
Fugtighed 16%
Tryk 1014 hPa
Sigt 10 km eller mere

METAR: YBAS 230900Z AUTO 26006KT 9999 // NCD 23/M04 Q1014 RF00.0/000.0

Tid: 18:52 (09:22 UTC)

Vejrudsigter

Denne rapport blev lavet for 3 timer og 55 minutter siden, kl. 05:27 UTC
Foreløbig gælder fra 23 på 06 UTC til 24 på 06 UTC
Vind 12 kt fra vestsydvest
Sigt 10 km eller mere
ingen skyer under 1500m og ingen cumulonimbus
Fra 23 på 0900 UTC
Vind 5 kt fra vestnordvest
Sigt 10 km eller mere
ingen skyer under 1500m og ingen cumulonimbus
Fra 24 på 0000 UTC
Vind 8 kt fra østsydøst
Sigt 10 km eller mere
ingen skyer under 1500m og ingen cumulonimbus

TAF: YBAS 230527Z 2306/2406 25012KT CAVOK FM230900 30005KT CAVOK FM240000 11008KT CAVOK

Vejrobservationer og prognoser fra mere end 4000 lufthavne (METAR og TAF).

De gule og røde prikker repræsenterer de meteorologiske stationer.

Flyt musen over at se navnet på stationen.

Så klik over at se vejr observationer og prognoser.

At skifte det kort: Klik på de grønne knapper med et sort kors for at zoome ind; på den grønne knap med en bindestreg for at zoome ud; eller på de grønne pile for tilstødende kort.


METAR-TAF: